createdAt,value
2018-05-07T00:00:18.173Z,98662.97
2018-05-07T00:02:29.239Z,98664.36
2018-05-07T00:04:40.381Z,98662.75
2018-05-07T00:06:51.543Z,98668.42
2018-05-07T00:09:02.668Z,98662.78
2018-05-07T00:11:13.725Z,98663.00
2018-05-07T00:13:24.806Z,98657.64
2018-05-07T00:15:35.914Z,98651.98
2018-05-07T00:17:47.021Z,98652.54
2018-05-07T00:19:58.201Z,98651.91
2018-05-07T00:22:09.330Z,98658.20
2018-05-07T00:24:20.383Z,98649.33
2018-05-07T00:26:31.524Z,98648.67
2018-05-07T00:28:42.560Z,98654.36
2018-05-07T00:30:53.646Z,98650.35
2018-05-07T00:33:04.733Z,98651.78
2018-05-07T00:35:15.958Z,98652.67
2018-05-07T00:37:27.023Z,98646.70
2018-05-07T00:39:38.262Z,98647.22
2018-05-07T00:41:49.326Z,98637.79
2018-05-07T00:44:00.449Z,98639.86
2018-05-07T00:46:11.557Z,98639.80
2018-05-07T00:48:22.610Z,98636.62
2018-05-07T00:50:33.807Z,98637.52
2018-05-07T00:52:44.848Z,98638.79
2018-05-07T00:55:08.281Z,98643.55
2018-05-07T00:57:19.333Z,98641.13
2018-05-07T00:59:30.444Z,98647.94
2018-05-07T01:01:41.563Z,98645.55
2018-05-07T01:03:52.790Z,98642.86
2018-05-07T01:06:03.992Z,98642.22
2018-05-07T01:08:15.101Z,98650.16
2018-05-07T01:10:26.285Z,98648.25
2018-05-07T01:12:37.386Z,98653.25
2018-05-07T01:14:48.449Z,98648.14
2018-05-07T01:16:59.562Z,98648.02
2018-05-07T01:19:10.617Z,98650.75
2018-05-07T01:21:21.786Z,98656.25
2018-05-07T01:23:32.869Z,98655.41
2018-05-07T01:25:44.002Z,98654.17
2018-05-07T01:27:55.102Z,98655.41
2018-05-07T01:30:06.301Z,98654.05
2018-05-07T01:32:17.400Z,98660.55
2018-05-07T01:34:28.454Z,98655.64
2018-05-07T01:36:39.519Z,98657.02
2018-05-07T01:38:50.618Z,98650.73
2018-05-07T01:41:01.813Z,98654.63
2018-05-07T01:43:12.970Z,98658.38
2018-05-07T01:45:24.089Z,98661.70
2018-05-07T01:47:35.169Z,98659.43
2018-05-07T01:49:46.287Z,98663.48
2018-05-07T01:51:57.357Z,98660.45
2018-05-07T01:54:08.465Z,98657.23
2018-05-07T01:56:19.517Z,98658.38
2018-05-07T01:58:30.630Z,98652.83
2018-05-07T02:00:41.866Z,98655.16
2018-05-07T02:02:53.882Z,98651.42
2018-05-07T02:05:04.990Z,98650.02
2018-05-07T02:07:16.190Z,98652.02
2018-05-07T02:09:27.295Z,98647.55
2018-05-07T02:11:38.400Z,98656.80
2018-05-07T02:13:49.530Z,98655.58
2018-05-07T02:16:00.644Z,98657.81
2018-05-07T02:18:11.726Z,98652.97
2018-05-07T02:20:22.838Z,98646.09
2018-05-07T02:22:33.891Z,98652.72
2018-05-07T02:24:44.981Z,98651.05
2018-05-07T02:26:56.074Z,98655.34
2018-05-07T02:29:07.170Z,98652.16
2018-05-07T02:31:18.284Z,98650.44
2018-05-07T02:33:29.347Z,98648.86
2018-05-07T02:35:40.526Z,98643.20
2018-05-07T02:37:51.582Z,98643.19
2018-05-07T02:40:02.638Z,98647.67
2018-05-07T02:42:13.831Z,98645.77
2018-05-07T02:44:24.955Z,98634.31
2018-05-07T02:46:36.081Z,98636.14
2018-05-07T02:48:47.196Z,98634.02
2018-05-07T02:50:58.434Z,98636.22
2018-05-07T02:53:09.496Z,98628.98
2018-05-07T02:55:20.575Z,98628.37
2018-05-07T02:57:31.663Z,98630.95
2018-05-07T02:59:42.727Z,98628.70
2018-05-07T03:01:53.801Z,98627.05
2018-05-07T03:04:04.966Z,98630.92
2018-05-07T03:06:16.116Z,98624.09
2018-05-07T03:08:27.255Z,98634.83
2018-05-07T03:10:38.341Z,98632.84
2018-05-07T03:12:49.447Z,98633.38
2018-05-07T03:15:00.534Z,98626.09
2018-05-07T03:17:11.598Z,98635.39
2018-05-07T03:19:22.685Z,98631.06
2018-05-07T03:21:33.809Z,98629.25
2018-05-07T03:23:45.038Z,98633.30
2018-05-07T03:25:56.246Z,98636.11
2018-05-07T03:28:07.357Z,98637.00
2018-05-07T03:30:18.658Z,98637.33
2018-05-07T03:32:29.745Z,98631.83
2018-05-07T03:34:40.858Z,98632.78
2018-05-07T03:36:51.921Z,98633.10
2018-05-07T03:39:02.970Z,98630.30
2018-05-07T03:41:14.122Z,98626.92
2018-05-07T03:43:25.221Z,98622.13
2018-05-07T03:45:36.364Z,98623.38
2018-05-07T03:47:47.443Z,98625.09
2018-05-07T03:49:58.558Z,98623.64
2018-05-07T03:52:09.634Z,98627.67
2018-05-07T03:54:20.677Z,98628.98
2018-05-07T03:56:31.742Z,98637.29
2018-05-07T03:58:42.917Z,98632.31
2018-05-07T04:00:54.084Z,98628.56
2018-05-07T04:03:05.274Z,98626.45
2018-05-07T04:05:16.415Z,98618.80
2018-05-07T04:07:27.571Z,98627.60
2018-05-07T04:09:39.418Z,98621.70
2018-05-07T04:11:50.739Z,98628.56
2018-05-07T04:14:01.810Z,98627.52
2018-05-07T04:16:12.954Z,98627.46
2018-05-07T04:18:36.314Z,98619.11
2018-05-07T04:20:59.650Z,98622.18
2018-05-07T04:23:23.140Z,98624.32
2018-05-07T04:25:34.214Z,98622.75
2018-05-07T04:27:45.314Z,98623.37
2018-05-07T04:29:56.394Z,98624.58
2018-05-07T04:32:07.457Z,98625.86
2018-05-07T04:34:18.658Z,98625.98
2018-05-07T04:36:29.736Z,98627.41
2018-05-07T04:38:40.866Z,98634.08
2018-05-07T04:40:51.971Z,98631.68
2018-05-07T04:43:03.154Z,98630.69
2018-05-07T04:45:14.257Z,98633.72
2018-05-07T04:47:25.326Z,98631.00
2018-05-07T04:49:36.431Z,98635.33
2018-05-07T04:51:47.506Z,98637.39
2018-05-07T04:53:58.680Z,98631.17
2018-05-07T04:56:09.770Z,98634.97
2018-05-07T04:58:20.994Z,98636.79
2018-05-07T05:00:32.083Z,98635.70
2018-05-07T05:02:43.277Z,98636.30
2018-05-07T05:04:54.743Z,98642.36
2018-05-07T05:07:05.907Z,98641.05
2018-05-07T05:09:17.859Z,98642.25
2018-05-07T05:11:29.015Z,98641.17
2018-05-07T05:13:40.114Z,98639.20
2018-05-07T05:15:51.218Z,98643.38
2018-05-07T05:18:02.330Z,98639.45
2018-05-07T05:20:13.378Z,98641.59
2018-05-07T05:22:24.461Z,98644.26
2018-05-07T05:24:35.545Z,98648.50
2018-05-07T05:26:46.710Z,98646.58
2018-05-07T05:28:57.886Z,98644.77
2018-05-07T05:31:08.965Z,98642.45
2018-05-07T05:33:20.086Z,98646.84
2018-05-07T05:35:31.258Z,98646.66
2018-05-07T05:37:42.368Z,98644.70
2018-05-07T05:39:53.503Z,98640.45
2018-05-07T05:42:04.580Z,98639.20
2018-05-07T05:44:15.718Z,98648.88
2018-05-07T05:46:28.722Z,98642.00
2018-05-07T05:48:39.806Z,98646.47
2018-05-07T05:50:51.058Z,98641.23
2018-05-07T05:53:02.126Z,98643.28
2018-05-07T05:55:13.331Z,98648.19
2018-05-07T05:57:24.452Z,98645.01
2018-05-07T05:59:35.514Z,98645.58
2018-05-07T06:01:46.635Z,98642.52
2018-05-07T06:03:57.736Z,98644.87
2018-05-07T06:06:08.877Z,98646.94
2018-05-07T06:08:19.985Z,98649.20
2018-05-07T06:10:31.223Z,98645.22
2018-05-07T06:12:42.345Z,98640.97
2018-05-07T06:14:53.452Z,98638.27
2018-05-07T06:17:04.540Z,98643.80
2018-05-07T06:19:15.606Z,98637.16
2018-05-07T06:21:26.709Z,98636.87
2018-05-07T06:23:37.793Z,98637.63
2018-05-07T06:25:48.946Z,98639.20
2018-05-07T06:28:00.045Z,98635.39
2018-05-07T06:30:11.171Z,98639.13
2018-05-07T06:32:22.303Z,98637.59
2018-05-07T06:34:33.381Z,98640.68
2018-05-07T06:36:44.470Z,98640.86
2018-05-07T06:38:55.537Z,98637.33
2018-05-07T06:41:06.631Z,98629.23
2018-05-07T06:43:17.718Z,98629.87
2018-05-07T06:45:28.930Z,98633.30
2018-05-07T06:47:40.001Z,98628.34
2018-05-07T06:49:51.108Z,98622.13
2018-05-07T06:52:02.217Z,98615.55
2018-05-07T06:54:13.306Z,98620.89
2018-05-07T06:56:24.365Z,98621.52
2018-05-07T06:58:35.537Z,98611.25
2018-05-07T07:00:46.605Z,98612.90
2018-05-07T07:02:57.779Z,98615.31
2018-05-07T07:05:09.714Z,98613.16
2018-05-07T07:07:20.901Z,98612.73
2018-05-07T07:09:31.939Z,98605.16
2018-05-07T07:11:43.119Z,98608.72
2018-05-07T07:13:54.198Z,98616.05
2018-05-07T07:16:05.366Z,98605.48
2018-05-07T07:18:16.433Z,98602.60
2018-05-07T07:20:27.578Z,98612.66
2018-05-07T07:22:38.638Z,98600.63
2018-05-07T07:24:49.718Z,98604.59
2018-05-07T07:27:00.791Z,98604.34
2018-05-07T07:29:11.981Z,98603.52
2018-05-07T07:31:23.277Z,98607.34
2018-05-07T07:33:34.361Z,98601.23
2018-05-07T07:35:45.495Z,98603.44
2018-05-07T07:37:56.636Z,98602.42
2018-05-07T07:40:07.724Z,98603.38
2018-05-07T07:42:18.825Z,98603.03
2018-05-07T07:44:29.912Z,98594.15
2018-05-07T07:46:41.106Z,98594.78
2018-05-07T07:48:52.210Z,98592.41
2018-05-07T07:51:03.402Z,98594.42
2018-05-07T07:53:14.473Z,98594.06
2018-05-07T07:55:25.602Z,98592.05
2018-05-07T07:57:36.709Z,98588.03
2018-05-07T07:59:47.804Z,98586.14
2018-05-07T08:01:58.933Z,98587.17
2018-05-07T08:04:10.084Z,98582.49
2018-05-07T08:06:21.119Z,98590.17
2018-05-07T08:08:32.238Z,98579.73
2018-05-07T08:10:43.430Z,98586.95
2018-05-07T08:12:54.566Z,98576.71
2018-05-07T08:15:05.678Z,98577.88
2018-05-07T08:17:16.779Z,98584.97
2018-05-07T08:19:27.898Z,98581.33
2018-05-07T08:21:38.985Z,98578.98
2018-05-07T08:23:50.069Z,98575.53
2018-05-07T08:26:01.245Z,98575.03
2018-05-07T08:28:12.352Z,98573.98
2018-05-07T08:30:23.581Z,98571.80
2018-05-07T08:32:34.578Z,98569.00
2018-05-07T08:34:45.801Z,98566.36
2018-05-07T08:36:56.874Z,98568.91
2018-05-07T08:39:07.923Z,98567.99
2018-05-07T08:41:19.010Z,98561.95
2018-05-07T08:43:30.109Z,98560.87
2018-05-07T08:45:41.258Z,98566.67
2018-05-07T08:47:52.332Z,98560.49
2018-05-07T08:50:03.558Z,98554.93
2018-05-07T08:52:14.642Z,98560.60
2018-05-07T08:54:25.809Z,98555.90
2018-05-07T08:56:36.886Z,98563.33
2018-05-07T08:58:48.042Z,98551.70
2018-05-07T09:00:59.127Z,98551.03
2018-05-07T09:03:10.206Z,98549.14
2018-05-07T09:05:21.439Z,98548.59
2018-05-07T09:07:32.632Z,98548.02
2018-05-07T09:09:43.782Z,98547.50
2018-05-07T09:11:54.982Z,98543.94
2018-05-07T09:14:06.207Z,98538.54
2018-05-07T09:16:17.318Z,98534.33
2018-05-07T09:18:29.145Z,98527.16
2018-05-07T09:20:40.311Z,98534.81
2018-05-07T09:22:51.367Z,98528.89
2018-05-07T09:25:02.497Z,98524.39
2018-05-07T09:27:13.643Z,98533.09
2018-05-07T09:29:24.723Z,98526.52
2018-05-07T09:31:36.003Z,98521.92
2018-05-07T09:33:46.985Z,98524.95
2018-05-07T09:35:58.136Z,98528.41
2018-05-07T09:38:09.349Z,98524.31
2018-05-07T09:40:20.668Z,98515.80
2018-05-07T09:42:31.964Z,98518.09
2018-05-07T09:44:43.058Z,98518.48
2018-05-07T09:46:54.304Z,98515.88
2018-05-07T09:49:05.432Z,98518.09
2018-05-07T09:51:16.510Z,98514.50
2018-05-07T09:53:27.629Z,98510.73
2018-05-07T09:55:38.749Z,98514.71
2018-05-07T09:58:02.127Z,98521.35
2018-05-07T10:00:13.213Z,98514.89
2018-05-07T10:02:24.344Z,98518.12
2018-05-07T10:04:35.421Z,98511.59
2018-05-07T10:06:46.527Z,98506.65
2018-05-07T10:08:57.647Z,98499.20
2018-05-07T10:11:08.767Z,98498.31
2018-05-07T10:13:20.190Z,98493.67
2018-05-07T10:15:31.291Z,98500.44
2018-05-07T10:17:42.413Z,98498.48
2018-05-07T10:19:53.587Z,98494.11
2018-05-07T10:22:04.689Z,98489.48
2018-05-07T10:24:15.891Z,98488.69
2018-05-07T10:26:26.928Z,98484.80
2018-05-07T10:28:38.042Z,98480.69
2018-05-07T10:30:49.139Z,98475.49
2018-05-07T10:33:00.478Z,98472.30
2018-05-07T10:35:11.752Z,98475.08
2018-05-07T10:37:22.880Z,98477.23
2018-05-07T10:39:34.034Z,98479.08
2018-05-07T10:41:45.105Z,98462.91
2018-05-07T10:43:56.167Z,98458.25
2018-05-07T10:46:07.894Z,98458.41
2018-05-07T10:48:18.994Z,98463.61
2018-05-07T10:50:30.078Z,98454.44
2018-05-07T10:52:41.225Z,98455.75
2018-05-07T10:54:52.301Z,98450.09
2018-05-07T10:57:03.398Z,98441.41
2018-05-07T10:59:14.518Z,98446.51
2018-05-07T11:01:25.704Z,98436.91
2018-05-07T11:03:36.902Z,98436.72
2018-05-07T11:05:48.066Z,98437.67
2018-05-07T11:07:59.197Z,98444.89
2018-05-07T11:10:10.280Z,98433.94
2018-05-07T11:12:21.418Z,98429.34
2018-05-07T11:14:32.594Z,98425.77
2018-05-07T11:16:43.690Z,98431.47
2018-05-07T11:18:54.841Z,98421.91
2018-05-07T11:21:06.022Z,98414.34
2018-05-07T11:23:17.146Z,98423.00
2018-05-07T11:25:28.303Z,98421.35
2018-05-07T11:27:39.355Z,98418.19
2018-05-07T11:29:50.682Z,98414.52
2018-05-07T11:32:01.802Z,98408.72
2018-05-07T11:34:12.911Z,98416.44
2018-05-07T11:36:23.978Z,98410.83
2018-05-07T11:38:35.056Z,98408.92
2018-05-07T11:40:46.334Z,98406.55
2018-05-07T11:42:57.439Z,98407.24
2018-05-07T11:45:08.590Z,98404.94
2018-05-07T11:47:19.745Z,98399.52
2018-05-07T11:49:30.827Z,98394.99
2018-05-07T11:51:41.925Z,98397.53
2018-05-07T11:53:53.034Z,98401.56
2018-05-07T11:56:04.134Z,98392.64
2018-05-07T11:58:15.263Z,98393.27
2018-05-07T12:00:26.400Z,98386.23
2018-05-07T12:02:37.527Z,98384.09
2018-05-07T12:04:48.657Z,98396.66
2018-05-07T12:06:59.770Z,98394.67
2018-05-07T12:09:10.850Z,98379.20
2018-05-07T12:11:21.980Z,98384.33
2018-05-07T12:13:33.113Z,98391.66
2018-05-07T12:15:44.267Z,98392.45
2018-05-07T12:17:55.334Z,98387.53
2018-05-07T12:20:06.708Z,98391.95
2018-05-07T12:22:17.883Z,98378.45
2018-05-07T12:24:29.030Z,98379.27
2018-05-07T12:26:40.311Z,98375.95
2018-05-07T12:28:51.407Z,98374.96
2018-05-07T12:31:02.536Z,98378.06
2018-05-07T12:33:13.645Z,98367.75
2018-05-07T12:35:24.731Z,98370.97
2018-05-07T12:37:35.919Z,98367.48
2018-05-07T12:39:46.947Z,98361.13
2018-05-07T12:41:58.102Z,98368.44
2018-05-07T12:44:09.217Z,98360.31
2018-05-07T12:46:20.402Z,98365.26
2018-05-07T12:48:31.538Z,98347.80
2018-05-07T12:50:42.669Z,98337.04
2018-05-07T12:52:53.750Z,98341.11
2018-05-07T12:55:04.841Z,98337.42
2018-05-07T12:57:15.949Z,98332.58
2018-05-07T12:59:27.030Z,98333.53
2018-05-07T13:01:38.304Z,98338.89
2018-05-07T13:03:49.393Z,98329.47
2018-05-07T13:06:00.534Z,98328.27
2018-05-07T13:08:11.643Z,98315.36
2018-05-07T13:10:22.842Z,98322.09
2018-05-07T13:12:34.648Z,98307.37
2018-05-07T13:14:45.739Z,98310.20
2018-05-07T13:16:57.014Z,98301.02
2018-05-07T13:19:08.082Z,98304.16
2018-05-07T13:21:19.263Z,98304.01
2018-05-07T13:23:30.330Z,98309.23
2018-05-07T13:25:41.409Z,98306.36
2018-05-07T13:27:52.578Z,98302.72
2018-05-07T13:30:03.705Z,98296.23
2018-05-07T13:32:14.877Z,98287.94
2018-05-07T13:34:26.055Z,98294.53
2018-05-07T13:36:37.230Z,98294.84
2018-05-07T13:38:48.622Z,98285.83
2018-05-07T13:40:59.723Z,98283.23
2018-05-07T13:43:11.007Z,98277.84
2018-05-07T13:45:22.007Z,98277.30
2018-05-07T13:47:33.110Z,98273.64
2018-05-07T13:49:44.246Z,98281.56
2018-05-07T13:51:55.306Z,98275.14
2018-05-07T13:54:06.434Z,98262.20
2018-05-07T13:56:17.588Z,98262.41
2018-05-07T13:58:29.608Z,98269.48
2018-05-07T14:00:40.765Z,98269.27
2018-05-07T14:02:51.859Z,98263.02
2018-05-07T14:05:03.011Z,98257.80
2018-05-07T14:07:14.093Z,98252.82
2018-05-07T14:09:25.362Z,98248.48
2018-05-07T14:11:36.482Z,98247.16
2018-05-07T14:13:47.587Z,98236.50
2018-05-07T14:15:58.697Z,98243.16
2018-05-07T14:18:09.757Z,98230.16
2018-05-07T14:20:21.663Z,98231.01
2018-05-07T14:22:32.774Z,98232.41
2018-05-07T14:24:43.887Z,98236.88
2018-05-07T14:26:54.955Z,98239.00
2018-05-07T14:29:08.624Z,98228.38
2018-05-07T14:31:19.745Z,98229.88
2018-05-07T14:33:30.913Z,98234.97
2018-05-07T14:35:42.016Z,98218.80
2018-05-07T14:37:53.176Z,98212.00
2018-05-07T14:40:04.282Z,98211.21
2018-05-07T14:42:15.403Z,98206.43
2018-05-07T14:44:26.456Z,98212.26
2018-05-07T14:46:37.574Z,98210.69
2018-05-07T14:48:48.659Z,98207.48
2018-05-07T14:50:59.730Z,98199.77
2018-05-07T14:53:10.939Z,98204.68
2018-05-07T14:55:22.023Z,98209.29
2018-05-07T14:57:33.117Z,98204.75
2018-05-07T14:59:44.887Z,98203.40
2018-05-07T15:01:57.062Z,98210.60
2018-05-07T15:04:08.165Z,98202.14
2018-05-07T15:06:19.306Z,98197.56
2018-05-07T15:08:30.454Z,98198.93
2018-05-07T15:10:41.529Z,98205.99
2018-05-07T15:12:52.658Z,98193.02
2018-05-07T15:15:03.819Z,98192.69
2018-05-07T15:17:15.013Z,98187.50
2018-05-07T15:19:26.162Z,98183.98
2018-05-07T15:21:37.438Z,98184.80
2018-05-07T15:23:48.597Z,98181.43
2018-05-07T15:25:59.703Z,98173.81
2018-05-07T15:28:10.777Z,98172.86
2018-05-07T15:30:26.392Z,98169.59
2018-05-07T15:32:37.535Z,98166.96
2018-05-07T15:34:48.676Z,98166.76
2018-05-07T15:36:59.745Z,98167.95
2018-05-07T15:39:10.849Z,98163.72
2018-05-07T15:41:21.976Z,98162.87
2018-05-07T15:43:33.109Z,98162.73
2018-05-07T15:45:44.219Z,98162.66
2018-05-07T15:47:55.455Z,98160.79
2018-05-07T15:50:06.477Z,98161.50
2018-05-07T15:52:17.601Z,98149.80
2018-05-07T15:54:28.756Z,98160.11
2018-05-07T15:56:39.806Z,98151.78
2018-05-07T15:58:50.888Z,98146.25
2018-05-07T16:01:02.018Z,98148.58
2018-05-07T16:03:13.316Z,98151.75
2018-05-07T16:05:24.339Z,98152.59
2018-05-07T16:07:35.466Z,98143.87
2018-05-07T16:09:46.576Z,98146.29
2018-05-07T16:11:57.735Z,98151.27
2018-05-07T16:14:08.862Z,98143.59
2018-05-07T16:16:19.982Z,98146.32
2018-05-07T16:18:31.106Z,98140.66
2018-05-07T16:20:42.207Z,98144.86
2018-05-07T16:22:53.270Z,98142.41
2018-05-07T16:25:04.374Z,98146.22
2018-05-07T16:27:15.469Z,98132.92
2018-05-07T16:29:26.619Z,98133.33
2018-05-07T16:31:37.678Z,98140.56
2018-05-07T16:33:48.738Z,98141.65
2018-05-07T16:35:59.860Z,98139.63
2018-05-07T16:38:10.934Z,98139.22
2018-05-07T16:40:22.163Z,98143.89
2018-05-07T16:42:33.321Z,98146.31
2018-05-07T16:44:44.471Z,98151.42
2018-05-07T16:46:55.650Z,98142.09
2018-05-07T16:49:06.809Z,98140.73
2018-05-07T16:51:17.866Z,98148.44
2018-05-07T16:53:28.969Z,98155.52
2018-05-07T16:55:40.086Z,98143.16
2018-05-07T16:57:51.235Z,98151.44
2018-05-07T17:00:02.337Z,98158.31
2018-05-07T17:02:13.451Z,98167.61
2018-05-07T17:04:24.518Z,98159.54
2018-05-07T17:06:35.796Z,98164.78
2018-05-07T17:08:46.891Z,98164.85
2018-05-07T17:10:58.018Z,98161.38
2018-05-07T17:13:09.158Z,98162.55
2018-05-07T17:15:20.259Z,98160.67
2018-05-07T17:17:31.391Z,98162.31
2018-05-07T17:19:42.496Z,98157.20
2018-05-07T17:21:53.757Z,98157.97
2018-05-07T17:24:04.861Z,98157.22
2018-05-07T17:26:16.062Z,98159.77
2018-05-07T17:28:27.172Z,98163.46
2018-05-07T17:30:38.251Z,98168.34
2018-05-07T17:32:49.349Z,98169.77
2018-05-07T17:35:00.417Z,98161.89
2018-05-07T17:37:11.535Z,98164.56
2018-05-07T17:39:22.663Z,98168.14
2018-05-07T17:41:33.872Z,98169.16
2018-05-07T17:43:45.005Z,98173.50
2018-05-07T17:46:08.290Z,98171.04
2018-05-07T17:48:31.445Z,98176.66
2018-05-07T17:50:42.539Z,98170.06
2018-05-07T17:52:53.678Z,98175.59
2018-05-07T17:55:04.807Z,98166.89
2018-05-07T17:57:15.917Z,98158.56
2018-05-07T17:59:27.010Z,98164.95
2018-05-07T18:01:38.187Z,98161.25
2018-05-07T18:03:49.690Z,98161.01
2018-05-07T18:06:00.919Z,98164.78
2018-05-07T18:08:12.158Z,98165.52
2018-05-07T18:10:23.272Z,98165.13
2018-05-07T18:12:34.415Z,98160.98
2018-05-07T18:14:45.522Z,98163.75
2018-05-07T18:16:56.666Z,98160.97
2018-05-07T18:19:07.884Z,98162.96
2018-05-07T18:21:18.899Z,98162.02
2018-05-07T18:23:30.049Z,98162.38
2018-05-07T18:25:41.160Z,98163.23
2018-05-07T18:27:52.505Z,98163.64
2018-05-07T18:30:03.675Z,98161.72
2018-05-07T18:32:14.798Z,98156.58
2018-05-07T18:34:25.875Z,98161.63
2018-05-07T18:36:36.942Z,98163.46
2018-05-07T18:38:48.073Z,98155.38
2018-05-07T18:40:59.131Z,98157.47
2018-05-07T18:43:10.232Z,98165.45
2018-05-07T18:45:21.328Z,98165.64
2018-05-07T18:47:32.521Z,98159.45
2018-05-07T18:49:43.623Z,98165.70
2018-05-07T18:51:54.691Z,98159.56
2018-05-07T18:54:05.798Z,98156.85
2018-05-07T18:56:16.862Z,98165.73
2018-05-07T18:58:28.040Z,98169.45
2018-05-07T19:00:39.168Z,98170.38
2018-05-07T19:02:50.277Z,98168.56
2018-05-07T19:05:01.394Z,98169.91
2018-05-07T19:07:12.552Z,98176.66
2018-05-07T19:09:23.658Z,98173.91
2018-05-07T19:11:34.795Z,98169.76
2018-05-07T19:13:45.965Z,98169.02
2018-05-07T19:15:57.114Z,98172.01
2018-05-07T19:18:08.253Z,98172.95
2018-05-07T19:20:19.350Z,98170.02
2018-05-07T19:22:30.590Z,98177.92
2018-05-07T19:24:41.704Z,98172.81
2018-05-07T19:26:52.944Z,98176.50
2018-05-07T19:29:04.201Z,98177.23
2018-05-07T19:31:15.350Z,98178.06
2018-05-07T19:33:26.555Z,98180.68
2018-05-07T19:35:37.654Z,98183.80
2018-05-07T19:37:48.729Z,98185.67
2018-05-07T19:39:59.898Z,98180.52
2018-05-07T19:42:10.918Z,98180.56
2018-05-07T19:44:22.057Z,98182.66
2018-05-07T19:46:33.206Z,98182.68
2018-05-07T19:48:44.303Z,98178.70
2018-05-07T19:50:55.448Z,98184.64
2018-05-07T19:53:06.677Z,98180.28
2018-05-07T19:55:17.782Z,98179.20
2018-05-07T19:57:28.882Z,98183.21
2018-05-07T19:59:40.106Z,98180.25
2018-05-07T20:01:51.127Z,98179.09
2018-05-07T20:04:02.257Z,98179.05
2018-05-07T20:06:13.420Z,98175.55
2018-05-07T20:08:24.572Z,98174.40
2018-05-07T20:10:35.634Z,98180.47
2018-05-07T20:12:46.947Z,98174.75
2018-05-07T20:14:58.075Z,98180.05
2018-05-07T20:17:09.214Z,98175.34
2018-05-07T20:19:20.404Z,98175.25
2018-05-07T20:21:31.445Z,98181.02
2018-05-07T20:23:42.561Z,98182.78
2018-05-07T20:25:53.658Z,98185.69
2018-05-07T20:28:04.831Z,98187.49
2018-05-07T20:30:15.983Z,98191.36
2018-05-07T20:32:29.125Z,98188.10
2018-05-07T20:34:40.215Z,98185.06
2018-05-07T20:36:51.305Z,98185.41
2018-05-07T20:39:02.430Z,98190.46
2018-05-07T20:41:13.531Z,98184.23
2018-05-07T20:43:24.633Z,98193.14
2018-05-07T20:45:35.688Z,98195.49
2018-05-07T20:47:47.023Z,98190.14
2018-05-07T20:49:58.350Z,98192.38
2018-05-07T20:52:09.428Z,98190.58
2018-05-07T20:54:20.627Z,98189.80
2018-05-07T20:56:31.702Z,98185.45
2018-05-07T20:58:42.823Z,98186.17
2018-05-07T21:00:53.867Z,98182.73
2018-05-07T21:03:04.953Z,98178.58
2018-05-07T21:05:16.090Z,98183.11
2018-05-07T21:07:27.206Z,98179.13
2018-05-07T21:09:38.308Z,98188.38
2018-05-07T21:11:49.385Z,98185.84
2018-05-07T21:14:00.646Z,98184.09
2018-05-07T21:16:11.801Z,98179.21
2018-05-07T21:18:22.905Z,98180.43
2018-05-07T21:20:34.042Z,98177.29
2018-05-07T21:22:45.131Z,98177.45
2018-05-07T21:24:56.258Z,98176.16
2018-05-07T21:27:07.358Z,98175.64
2018-05-07T21:29:18.487Z,98178.67
2018-05-07T21:31:29.590Z,98178.03
2018-05-07T21:33:40.723Z,98179.67
2018-05-07T21:35:51.899Z,98179.23
2018-05-07T21:38:02.934Z,98179.89
2018-05-07T21:40:14.018Z,98170.18
2018-05-07T21:42:25.199Z,98169.67
2018-05-07T21:44:36.299Z,98168.11
2018-05-07T21:46:47.421Z,98169.36
2018-05-07T21:48:58.522Z,98172.78
2018-05-07T21:51:09.618Z,98170.92
2018-05-07T21:53:20.726Z,98169.68
2018-05-07T21:55:31.798Z,98169.45
2018-05-07T21:57:42.941Z,98167.42
2018-05-07T21:59:53.996Z,98169.14
2018-05-07T22:02:05.111Z,98166.17
2018-05-07T22:04:16.186Z,98167.80
2018-05-07T22:06:27.323Z,98162.55
2018-05-07T22:08:38.414Z,98164.95
2018-05-07T22:10:49.474Z,98161.97
2018-05-07T22:13:00.615Z,98165.95
2018-05-07T22:15:11.682Z,98164.05
2018-05-07T22:17:22.773Z,98167.10
2018-05-07T22:19:33.866Z,98163.07
2018-05-07T22:21:45.018Z,98167.27
2018-05-07T22:23:56.128Z,98159.55
2018-05-07T22:26:07.253Z,98163.66
2018-05-07T22:28:18.349Z,98163.34
2018-05-07T22:30:29.409Z,98167.92
2018-05-07T22:32:40.542Z,98163.77
2018-05-07T22:34:51.634Z,98165.23
2018-05-07T22:37:02.852Z,98159.30
2018-05-07T22:39:29.145Z,98159.67
2018-05-07T22:41:40.315Z,98159.55
2018-05-07T22:43:51.448Z,98154.28
2018-05-07T22:46:02.609Z,98152.56
2018-05-07T22:48:13.718Z,98151.03
2018-05-07T22:50:24.929Z,98151.34
2018-05-07T22:52:36.050Z,98149.45
2018-05-07T22:54:47.162Z,98155.52
2018-05-07T22:56:58.245Z,98150.58
2018-05-07T22:59:09.330Z,98149.93
2018-05-07T23:01:20.429Z,98151.13
2018-05-07T23:03:31.609Z,98147.06
2018-05-07T23:05:42.725Z,98150.34
2018-05-07T23:07:53.782Z,98155.92
2018-05-07T23:10:05.027Z,98157.47
2018-05-07T23:12:16.094Z,98157.59
2018-05-07T23:14:27.217Z,98153.07
2018-05-07T23:16:38.288Z,98149.08
2018-05-07T23:18:49.349Z,98146.53
2018-05-07T23:21:00.542Z,98143.17
2018-05-07T23:23:11.607Z,98146.05
2018-05-07T23:25:22.807Z,98138.80
2018-05-07T23:27:33.920Z,98140.78
2018-05-07T23:29:45.081Z,98142.09
2018-05-07T23:31:56.187Z,98135.25
2018-05-07T23:34:07.237Z,98132.92
2018-05-07T23:36:18.339Z,98133.16
2018-05-07T23:38:29.421Z,98128.63
2018-05-07T23:40:40.582Z,98126.84
2018-05-07T23:42:51.786Z,98124.88
2018-05-07T23:45:02.998Z,98122.07
2018-05-07T23:47:14.090Z,98126.27
2018-05-07T23:49:25.177Z,98118.48
2018-05-07T23:51:36.262Z,98118.00
2018-05-07T23:53:47.335Z,98116.91
2018-05-07T23:55:58.415Z,98119.27
2018-05-07T23:58:09.484Z,98118.31
